sensor_id;sensor_type;location;lat;lon;timestamp;pressure;altitude;pressure_sealevel;temperature;humidity
34034;BME280;63481;52.588;22.472;2024-01-16T00:02:14;97809.80;;;-2.20;100.00
34034;BME280;63481;52.588;22.472;2024-01-16T00:07:16;97811.65;;;-2.23;100.00
34034;BME280;63481;52.588;22.472;2024-01-16T00:12:18;97824.21;;;-2.30;100.00
34034;BME280;63481;52.588;22.472;2024-01-16T00:17:20;97835.23;;;-2.33;100.00
34034;BME280;63481;52.588;22.472;2024-01-16T00:22:22;97842.62;;;-2.33;100.00
34034;BME280;63481;52.588;22.472;2024-01-16T00:27:25;97861.98;;;-2.38;100.00
34034;BME280;63481;52.588;22.472;2024-01-16T00:32:27;97876.48;;;-2.57;100.00
34034;BME280;63481;52.588;22.472;2024-01-16T00:37:29;97883.47;;;-2.70;100.00
34034;BME280;63481;52.588;22.472;2024-01-16T00:42:32;97887.95;;;-2.90;100.00
34034;BME280;63481;52.588;22.472;2024-01-16T00:47:34;97898.79;;;-3.10;100.00
34034;BME280;63481;52.588;22.472;2024-01-16T00:52:36;97920.56;;;-3.20;100.00
34034;BME280;63481;52.588;22.472;2024-01-16T00:57:38;97927.18;;;-3.30;100.00
34034;BME280;63481;52.588;22.472;2024-01-16T01:02:41;97933.50;;;-3.38;100.00
34034;BME280;63481;52.588;22.472;2024-01-16T01:07:43;97945.19;;;-3.43;100.00
34034;BME280;63481;52.588;22.472;2024-01-16T01:12:45;97944.89;;;-3.46;100.00
34034;BME280;63481;52.588;22.472;2024-01-16T01:17:50;97950.28;;;-3.54;100.00
34034;BME280;63481;52.588;22.472;2024-01-16T01:22:53;97959.84;;;-3.57;100.00
34034;BME280;63481;52.588;22.472;2024-01-16T01:27:55;97974.37;;;-3.63;100.00
34034;BME280;63481;52.588;22.472;2024-01-16T01:32:57;97985.94;;;-3.48;100.00
34034;BME280;63481;52.588;22.472;2024-01-16T01:37:59;97989.40;;;-3.32;100.00
34034;BME280;63481;52.588;22.472;2024-01-16T01:43:19;98004.77;;;-3.19;100.00
34034;BME280;63481;52.588;22.472;2024-01-16T01:48:21;98012.33;;;-3.14;100.00
34034;BME280;63481;52.588;22.472;2024-01-16T01:53:24;98018.38;;;-3.14;100.00
34034;BME280;63481;52.588;22.472;2024-01-16T01:58:27;98036.45;;;-3.10;100.00
34034;BME280;63481;52.588;22.472;2024-01-16T02:03:32;98040.02;;;-3.08;100.00
34034;BME280;63481;52.588;22.472;2024-01-16T02:08:38;98051.44;;;-3.12;100.00
34034;BME280;63481;52.588;22.472;2024-01-16T02:13:40;98060.63;;;-3.12;100.00
34034;BME280;63481;52.588;22.472;2024-01-16T02:18:43;98056.77;;;-3.18;100.00
34034;BME280;63481;52.588;22.472;2024-01-16T02:23:46;98074.41;;;-3.22;100.00
34034;BME280;63481;52.588;22.472;2024-01-16T02:28:48;98088.02;;;-3.27;100.00
34034;BME280;63481;52.588;22.472;2024-01-16T02:33:50;98096.11;;;-3.23;100.00
34034;BME280;63481;52.588;22.472;2024-01-16T02:38:52;98111.45;;;-3.36;100.00
34034;BME280;63481;52.588;22.472;2024-01-16T02:43:55;98131.73;;;-3.49;100.00
34034;BME280;63481;52.588;22.472;2024-01-16T02:48:57;98162.70;;;-3.54;100.00
34034;BME280;63481;52.588;22.472;2024-01-16T02:53:59;98146.31;;;-3.49;100.00
34034;BME280;63481;52.588;22.472;2024-01-16T02:59:01;98155.25;;;-3.48;100.00
34034;BME280;63481;52.588;22.472;2024-01-16T03:04:03;98157.24;;;-3.51;100.00
34034;BME280;63481;52.588;22.472;2024-01-16T03:09:06;98162.88;;;-3.59;100.00
34034;BME280;63481;52.588;22.472;2024-01-16T03:14:08;98170.81;;;-3.75;100.00
34034;BME280;63481;52.588;22.472;2024-01-16T03:19:10;98174.86;;;-3.96;100.00
34034;BME280;63481;52.588;22.472;2024-01-16T03:24:14;98186.88;;;-4.04;100.00
34034;BME280;63481;52.588;22.472;2024-01-16T03:29:16;98195.77;;;-4.11;100.00
34034;BME280;63481;52.588;22.472;2024-01-16T03:34:18;98196.14;;;-4.14;100.00
34034;BME280;63481;52.588;22.472;2024-01-16T03:39:20;98206.21;;;-4.22;100.00
34034;BME280;63481;52.588;22.472;2024-01-16T03:44:22;98222.06;;;-4.36;100.00
34034;BME280;63481;52.588;22.472;2024-01-16T03:49:24;98226.36;;;-4.48;100.00
34034;BME280;63481;52.588;22.472;2024-01-16T03:54:27;98234.36;;;-4.57;100.00
34034;BME280;63481;52.588;22.472;2024-01-16T03:59:29;98237.42;;;-4.72;100.00
34034;BME280;63481;52.588;22.472;2024-01-16T04:04:31;98246.05;;;-4.74;100.00
34034;BME280;63481;52.588;22.472;2024-01-16T04:09:33;98260.52;;;-4.76;100.00
34034;BME280;63481;52.588;22.472;2024-01-16T04:14:35;98265.23;;;-4.85;100.00
34034;BME280;63481;52.588;22.472;2024-01-16T04:19:37;98273.52;;;-4.95;100.00
34034;BME280;63481;52.588;22.472;2024-01-16T04:24:41;98285.28;;;-5.10;100.00
34034;BME280;63481;52.588;22.472;2024-01-16T04:29:43;98293.34;;;-5.22;100.00
34034;BME280;63481;52.588;22.472;2024-01-16T04:34:45;98299.89;;;-5.25;100.00
34034;BME280;63481;52.588;22.472;2024-01-16T04:39:47;98316.58;;;-5.36;100.00
34034;BME280;63481;52.588;22.472;2024-01-16T04:44:49;98325.40;;;-5.47;100.00
34034;BME280;63481;52.588;22.472;2024-01-16T04:49:51;98323.86;;;-5.48;100.00
34034;BME280;63481;52.588;22.472;2024-01-16T04:54:53;98331.42;;;-5.50;100.00
34034;BME280;63481;52.588;22.472;2024-01-16T04:59:55;98338.45;;;-5.56;100.00
34034;BME280;63481;52.588;22.472;2024-01-16T05:04:57;98344.92;;;-5.63;100.00
34034;BME280;63481;52.588;22.472;2024-01-16T05:10:00;98344.57;;;-5.63;100.00
34034;BME280;63481;52.588;22.472;2024-01-16T05:15:02;98353.50;;;-5.71;100.00
34034;BME280;63481;52.588;22.472;2024-01-16T05:20:05;98367.48;;;-5.76;100.00
34034;BME280;63481;52.588;22.472;2024-01-16T05:25:07;98375.17;;;-5.78;100.00
34034;BME280;63481;52.588;22.472;2024-01-16T05:30:10;98373.17;;;-5.84;100.00
34034;BME280;63481;52.588;22.472;2024-01-16T05:35:14;98387.02;;;-5.95;100.00
34034;BME280;63481;52.588;22.472;2024-01-16T05:40:17;98392.25;;;-6.08;100.00
34034;BME280;63481;52.588;22.472;2024-01-16T05:45:19;98400.83;;;-6.16;100.00
34034;BME280;63481;52.588;22.472;2024-01-16T05:50:21;98406.70;;;-6.16;100.00
34034;BME280;63481;52.588;22.472;2024-01-16T05:55:23;98405.83;;;-6.29;100.00
34034;BME280;63481;52.588;22.472;2024-01-16T06:00:25;98420.91;;;-6.38;100.00
34034;BME280;63481;52.588;22.472;2024-01-16T06:05:27;98426.36;;;-6.46;100.00
34034;BME280;63481;52.588;22.472;2024-01-16T06:10:29;98438.54;;;-6.54;100.00
34034;BME280;63481;52.588;22.472;2024-01-16T06:15:31;98449.65;;;-6.54;100.00
34034;BME280;63481;52.588;22.472;2024-01-16T06:20:33;98457.14;;;-6.57;100.00
34034;BME280;63481;52.588;22.472;2024-01-16T06:25:35;98458.42;;;-6.60;100.00
34034;BME280;63481;52.588;22.472;2024-01-16T06:30:38;98473.49;;;-6.60;100.00
34034;BME280;63481;52.588;22.472;2024-01-16T06:35:40;98478.99;;;-6.58;100.00
34034;BME280;63481;52.588;22.472;2024-01-16T06:40:42;98490.08;;;-6.58;100.00
34034;BME280;63481;52.588;22.472;2024-01-16T06:45:44;98496.26;;;-6.52;100.00
34034;BME280;63481;52.588;22.472;2024-01-16T06:50:46;98504.66;;;-6.55;100.00
34034;BME280;63481;52.588;22.472;2024-01-16T06:55:48;98524.33;;;-6.60;100.00
34034;BME280;63481;52.588;22.472;2024-01-16T07:00:50;98531.62;;;-6.65;100.00
34034;BME280;63481;52.588;22.472;2024-01-16T07:05:52;98541.86;;;-6.63;100.00
34034;BME280;63481;52.588;22.472;2024-01-16T07:10:54;98550.65;;;-6.59;100.00
34034;BME280;63481;52.588;22.472;2024-01-16T07:15:58;98562.89;;;-6.59;100.00
34034;BME280;63481;52.588;22.472;2024-01-16T07:21:00;98572.09;;;-6.54;100.00
34034;BME280;63481;52.588;22.472;2024-01-16T07:26:03;98579.34;;;-6.54;100.00
34034;BME280;63481;52.588;22.472;2024-01-16T07:31:06;98585.76;;;-6.61;100.00
34034;BME280;63481;52.588;22.472;2024-01-16T07:36:09;98593.08;;;-6.72;100.00
34034;BME280;63481;52.588;22.472;2024-01-16T07:41:11;98599.40;;;-6.77;100.00
34034;BME280;63481;52.588;22.472;2024-01-16T07:46:13;98610.89;;;-6.75;100.00
34034;BME280;63481;52.588;22.472;2024-01-16T07:51:15;98622.67;;;-6.72;100.00
34034;BME280;63481;52.588;22.472;2024-01-16T07:56:18;98622.28;;;-6.72;100.00
34034;BME280;63481;52.588;22.472;2024-01-16T08:01:20;98629.64;;;-6.63;100.00
34034;BME280;63481;52.588;22.472;2024-01-16T08:06:23;98637.66;;;-6.58;100.00
34034;BME280;63481;52.588;22.472;2024-01-16T08:11:25;98652.48;;;-6.48;100.00
34034;BME280;63481;52.588;22.472;2024-01-16T08:16:27;98661.12;;;-6.48;100.00
34034;BME280;63481;52.588;22.472;2024-01-16T08:21:29;98673.38;;;-6.43;100.00
34034;BME280;63481;52.588;22.472;2024-01-16T08:26:32;98673.95;;;-6.38;99.97
34034;BME280;63481;52.588;22.472;2024-01-16T08:31:34;98682.75;;;-6.37;99.45
34034;BME280;63481;52.588;22.472;2024-01-16T08:36:36;98700.66;;;-6.38;99.32
34034;BME280;63481;52.588;22.472;2024-01-16T08:41:39;98711.27;;;-6.33;98.62
34034;BME280;63481;52.588;22.472;2024-01-16T08:46:41;98718.80;;;-6.25;97.51
34034;BME280;63481;52.588;22.472;2024-01-16T08:51:43;98724.31;;;-6.23;97.08
34034;BME280;63481;52.588;22.472;2024-01-16T08:56:45;98729.09;;;-6.20;95.96
34034;BME280;63481;52.588;22.472;2024-01-16T09:01:47;98738.33;;;-6.17;94.68
34034;BME280;63481;52.588;22.472;2024-01-16T09:06:49;98749.85;;;-6.13;93.45
34034;BME280;63481;52.588;22.472;2024-01-16T09:11:52;98750.46;;;-6.06;93.14
34034;BME280;63481;52.588;22.472;2024-01-16T09:16:54;98750.75;;;-6.04;92.28
34034;BME280;63481;52.588;22.472;2024-01-16T09:21:56;98751.62;;;-5.94;91.70
34034;BME280;63481;52.588;22.472;2024-01-16T09:26:58;98760.27;;;-5.98;90.94
34034;BME280;63481;52.588;22.472;2024-01-16T09:32:00;98761.66;;;-5.89;90.49
34034;BME280;63481;52.588;22.472;2024-01-16T09:37:03;98760.33;;;-5.86;89.18
34034;BME280;63481;52.588;22.472;2024-01-16T09:42:05;98765.64;;;-5.74;88.36
34034;BME280;63481;52.588;22.472;2024-01-16T09:47:08;98770.89;;;-5.64;86.33
34034;BME280;63481;52.588;22.472;2024-01-16T09:52:12;98784.45;;;-5.62;85.68
34034;BME280;63481;52.588;22.472;2024-01-16T09:57:18;98783.14;;;-5.56;83.36
34034;BME280;63481;52.588;22.472;2024-01-16T10:02:22;98792.34;;;-5.54;82.69
34034;BME280;63481;52.588;22.472;2024-01-16T10:07:25;98798.73;;;-5.50;81.95
34034;BME280;63481;52.588;22.472;2024-01-16T10:12:30;98798.29;;;-5.46;81.89
34034;BME280;63481;52.588;22.472;2024-01-16T10:17:37;98803.63;;;-5.38;80.84
34034;BME280;63481;52.588;22.472;2024-01-16T10:22:40;98806.80;;;-5.33;80.28
34034;BME280;63481;52.588;22.472;2024-01-16T10:27:43;98807.48;;;-5.25;79.27
34034;BME280;63481;52.588;22.472;2024-01-16T10:32:45;98811.96;;;-5.14;77.54
34034;BME280;63481;52.588;22.472;2024-01-16T10:37:50;98824.52;;;-5.17;76.39
34034;BME280;63481;52.588;22.472;2024-01-16T10:43:00;98827.05;;;-5.07;75.52
34034;BME280;63481;52.588;22.472;2024-01-16T10:48:04;98830.10;;;-5.02;74.24
34034;BME280;63481;52.588;22.472;2024-01-16T10:53:07;98836.55;;;-4.97;74.19
34034;BME280;63481;52.588;22.472;2024-01-16T10:58:12;98852.98;;;-4.93;73.61
34034;BME280;63481;52.588;22.472;2024-01-16T11:04:07;98851.11;;;-4.86;72.61
34034;BME280;63481;52.588;22.472;2024-01-16T11:09:02;98861.21;;;-4.82;72.67
34034;BME280;63481;52.588;22.472;2024-01-16T11:14:05;98867.23;;;-4.77;71.93
34034;BME280;63481;52.588;22.472;2024-01-16T11:19:09;98858.46;;;-4.72;71.44
34034;BME280;63481;52.588;22.472;2024-01-16T11:24:11;98858.55;;;-4.62;70.49
34034;BME280;63481;52.588;22.472;2024-01-16T11:39:42;98880.16;;;-4.74;69.25
34034;BME280;63481;52.588;22.472;2024-01-16T11:44:49;98889.88;;;-4.82;67.71
34034;BME280;63481;52.588;22.472;2024-01-16T11:50:12;98896.77;;;-4.81;68.09
34034;BME280;63481;52.588;22.472;2024-01-16T11:55:31;98908.79;;;-4.86;68.99
34034;BME280;63481;52.588;22.472;2024-01-16T12:00:35;98929.38;;;-4.80;68.82
34034;BME280;63481;52.588;22.472;2024-01-16T12:05:38;98930.30;;;-4.82;69.87
34034;BME280;63481;52.588;22.472;2024-01-16T12:10:46;98934.12;;;-4.78;69.85
34034;BME280;63481;52.588;22.472;2024-01-16T12:16:00;98941.90;;;-4.82;69.54
34034;BME280;63481;52.588;22.472;2024-01-16T12:21:10;98938.73;;;-4.91;70.69
34034;BME280;63481;52.588;22.472;2024-01-16T12:26:20;98948.42;;;-4.87;70.63
34034;BME280;63481;52.588;22.472;2024-01-16T12:31:23;98954.63;;;-4.89;70.07
34034;BME280;63481;52.588;22.472;2024-01-16T12:36:26;98961.56;;;-4.91;68.75
34034;BME280;63481;52.588;22.472;2024-01-16T12:41:33;98966.48;;;-4.95;69.30
34034;BME280;63481;52.588;22.472;2024-01-16T12:46:36;98970.66;;;-5.08;70.30
34034;BME280;63481;52.588;22.472;2024-01-16T12:51:38;98979.18;;;-5.05;70.56
34034;BME280;63481;52.588;22.472;2024-01-16T12:56:41;98992.77;;;-5.13;71.01
34034;BME280;63481;52.588;22.472;2024-01-16T13:01:44;99009.96;;;-5.03;70.78
34034;BME280;63481;52.588;22.472;2024-01-16T13:06:47;99021.23;;;-4.89;70.22
34034;BME280;63481;52.588;22.472;2024-01-16T13:11:51;99027.09;;;-4.95;70.59
34034;BME280;63481;52.588;22.472;2024-01-16T13:16:54;99038.22;;;-5.07;71.27
34034;BME280;63481;52.588;22.472;2024-01-16T13:21:59;99049.44;;;-5.14;71.98
34034;BME280;63481;52.588;22.472;2024-01-16T13:27:01;99061.10;;;-5.08;71.55
34034;BME280;63481;52.588;22.472;2024-01-16T13:32:04;99069.35;;;-5.08;71.86
34034;BME280;63481;52.588;22.472;2024-01-16T13:37:06;99072.36;;;-4.99;71.56
34034;BME280;63481;52.588;22.472;2024-01-16T13:42:09;99076.95;;;-5.09;71.81
34034;BME280;63481;52.588;22.472;2024-01-16T13:47:12;99083.32;;;-5.20;72.19
34034;BME280;63481;52.588;22.472;2024-01-16T13:52:14;99080.34;;;-5.26;72.57
34034;BME280;63481;52.588;22.472;2024-01-16T13:57:16;99089.00;;;-5.34;73.45
34034;BME280;63481;52.588;22.472;2024-01-16T14:02:18;99100.92;;;-5.41;73.50
34034;BME280;63481;52.588;22.472;2024-01-16T14:07:20;99098.42;;;-5.58;74.12
34034;BME280;63481;52.588;22.472;2024-01-16T14:12:23;99111.98;;;-5.76;75.24
34034;BME280;63481;52.588;22.472;2024-01-16T14:17:26;99115.96;;;-5.83;75.62
34034;BME280;63481;52.588;22.472;2024-01-16T14:22:29;99118.83;;;-5.95;76.40
34034;BME280;63481;52.588;22.472;2024-01-16T14:27:31;99127.00;;;-6.06;76.72
34034;BME280;63481;52.588;22.472;2024-01-16T14:32:33;99135.14;;;-6.14;77.77
34034;BME280;63481;52.588;22.472;2024-01-16T14:37:36;99148.56;;;-6.24;78.63
34034;BME280;63481;52.588;22.472;2024-01-16T14:42:39;99159.20;;;-6.41;79.94
34034;BME280;63481;52.588;22.472;2024-01-16T14:47:41;99163.20;;;-6.52;79.97
34034;BME280;63481;52.588;22.472;2024-01-16T14:52:44;99173.13;;;-6.61;80.42
34034;BME280;63481;52.588;22.472;2024-01-16T14:57:46;99182.17;;;-6.77;81.24
34034;BME280;63481;52.588;22.472;2024-01-16T15:02:53;99191.16;;;-6.85;82.26
34034;BME280;63481;52.588;22.472;2024-01-16T15:07:56;99197.23;;;-6.85;82.71
34034;BME280;63481;52.588;22.472;2024-01-16T15:12:58;99207.00;;;-6.93;83.22
34034;BME280;63481;52.588;22.472;2024-01-16T15:18:00;99214.65;;;-6.98;83.42
34034;BME280;63481;52.588;22.472;2024-01-16T15:23:03;99223.30;;;-7.13;84.49
34034;BME280;63481;52.588;22.472;2024-01-16T15:28:05;99233.05;;;-7.19;85.36
34034;BME280;63481;52.588;22.472;2024-01-16T15:33:07;99241.83;;;-7.14;85.37
34034;BME280;63481;52.588;22.472;2024-01-16T15:38:09;99246.98;;;-7.18;85.59
34034;BME280;63481;52.588;22.472;2024-01-16T15:43:12;99254.01;;;-7.33;86.74
34034;BME280;63481;52.588;22.472;2024-01-16T15:48:14;99266.55;;;-7.30;86.53
34034;BME280;63481;52.588;22.472;2024-01-16T15:53:16;99273.96;;;-7.34;86.52
34034;BME280;63481;52.588;22.472;2024-01-16T15:58:19;99279.02;;;-7.44;87.83
34034;BME280;63481;52.588;22.472;2024-01-16T16:03:21;99289.27;;;-7.49;87.95
34034;BME280;63481;52.588;22.472;2024-01-16T16:08:23;99295.96;;;-7.55;88.17
34034;BME280;63481;52.588;22.472;2024-01-16T16:13:25;99299.52;;;-7.68;88.60
34034;BME280;63481;52.588;22.472;2024-01-16T16:18:33;99302.42;;;-7.70;89.67
34034;BME280;63481;52.588;22.472;2024-01-16T16:23:38;99304.98;;;-7.78;90.71
34034;BME280;63481;52.588;22.472;2024-01-16T16:28:40;99311.08;;;-7.81;92.42
34034;BME280;63481;52.588;22.472;2024-01-16T16:33:42;99312.65;;;-7.94;93.80
34034;BME280;63481;52.588;22.472;2024-01-16T16:38:44;99320.63;;;-7.99;95.83
34034;BME280;63481;52.588;22.472;2024-01-16T16:43:46;99327.14;;;-7.98;97.85
34034;BME280;63481;52.588;22.472;2024-01-16T16:48:49;99329.00;;;-8.02;98.93
34034;BME280;63481;52.588;22.472;2024-01-16T16:53:53;99328.54;;;-8.08;99.99
34034;BME280;63481;52.588;22.472;2024-01-16T16:58:56;99333.66;;;-8.14;100.00
34034;BME280;63481;52.588;22.472;2024-01-16T17:03:58;99333.38;;;-8.26;100.00
34034;BME280;63481;52.588;22.472;2024-01-16T17:09:00;99342.56;;;-8.29;100.00
34034;BME280;63481;52.588;22.472;2024-01-16T17:14:02;99344.98;;;-8.27;100.00
34034;BME280;63481;52.588;22.472;2024-01-16T17:19:05;99353.23;;;-8.29;100.00
34034;BME280;63481;52.588;22.472;2024-01-16T17:24:07;99360.48;;;-8.36;100.00
34034;BME280;63481;52.588;22.472;2024-01-16T17:29:09;99368.38;;;-8.38;100.00
34034;BME280;63481;52.588;22.472;2024-01-16T17:34:11;99379.68;;;-8.42;100.00
34034;BME280;63481;52.588;22.472;2024-01-16T17:39:14;99392.24;;;-8.49;100.00
34034;BME280;63481;52.588;22.472;2024-01-16T17:44:19;99394.73;;;-8.58;100.00
34034;BME280;63481;52.588;22.472;2024-01-16T17:49:21;99397.06;;;-8.59;100.00
34034;BME280;63481;52.588;22.472;2024-01-16T17:54:23;99398.77;;;-8.56;100.00
34034;BME280;63481;52.588;22.472;2024-01-16T17:59:25;99405.32;;;-8.64;100.00
34034;BME280;63481;52.588;22.472;2024-01-16T18:04:32;99409.61;;;-8.73;100.00
34034;BME280;63481;52.588;22.472;2024-01-16T18:09:34;99416.83;;;-8.70;100.00
34034;BME280;63481;52.588;22.472;2024-01-16T18:14:37;99420.39;;;-8.72;100.00
34034;BME280;63481;52.588;22.472;2024-01-16T18:19:40;99421.94;;;-8.77;100.00
34034;BME280;63481;52.588;22.472;2024-01-16T18:24:42;99422.27;;;-8.79;100.00
34034;BME280;63481;52.588;22.472;2024-01-16T18:29:45;99424.72;;;-8.75;100.00
34034;BME280;63481;52.588;22.472;2024-01-16T18:34:47;99428.73;;;-8.83;100.00
34034;BME280;63481;52.588;22.472;2024-01-16T18:39:49;99434.35;;;-8.92;100.00
34034;BME280;63481;52.588;22.472;2024-01-16T18:44:51;99441.08;;;-8.87;100.00
34034;BME280;63481;52.588;22.472;2024-01-16T18:49:55;99443.40;;;-8.88;100.00
34034;BME280;63481;52.588;22.472;2024-01-16T18:54:57;99453.63;;;-8.89;100.00
34034;BME280;63481;52.588;22.472;2024-01-16T18:59:59;99458.09;;;-8.97;100.00
34034;BME280;63481;52.588;22.472;2024-01-16T19:05:01;99459.64;;;-9.05;100.00
34034;BME280;63481;52.588;22.472;2024-01-16T19:10:04;99468.73;;;-9.19;100.00
34034;BME280;63481;52.588;22.472;2024-01-16T19:15:09;99478.71;;;-9.12;100.00
34034;BME280;63481;52.588;22.472;2024-01-16T19:20:12;99487.39;;;-8.82;100.00
34034;BME280;63481;52.588;22.472;2024-01-16T19:25:14;99493.30;;;-8.80;100.00
34034;BME280;63481;52.588;22.472;2024-01-16T19:30:18;99493.92;;;-8.84;100.00
34034;BME280;63481;52.588;22.472;2024-01-16T19:35:24;99501.96;;;-9.30;100.00
34034;BME280;63481;52.588;22.472;2024-01-16T19:40:26;99504.45;;;-9.28;100.00
34034;BME280;63481;52.588;22.472;2024-01-16T19:45:28;99506.63;;;-9.51;100.00
34034;BME280;63481;52.588;22.472;2024-01-16T19:50:31;99513.84;;;-9.22;100.00
34034;BME280;63481;52.588;22.472;2024-01-16T19:55:35;99516.14;;;-9.07;100.00
34034;BME280;63481;52.588;22.472;2024-01-16T20:00:38;99523.27;;;-9.12;100.00
34034;BME280;63481;52.588;22.472;2024-01-16T20:05:44;99526.73;;;-9.12;100.00
34034;BME280;63481;52.588;22.472;2024-01-16T20:10:46;99534.20;;;-9.15;100.00
34034;BME280;63481;52.588;22.472;2024-01-16T20:15:48;99546.39;;;-9.31;100.00
34034;BME280;63481;52.588;22.472;2024-01-16T20:20:50;99563.81;;;-9.77;100.00
34034;BME280;63481;52.588;22.472;2024-01-16T20:25:52;99576.23;;;-9.80;100.00
34034;BME280;63481;52.588;22.472;2024-01-16T20:30:54;99581.20;;;-9.20;100.00
34034;BME280;63481;52.588;22.472;2024-01-16T20:35:56;99585.45;;;-9.22;100.00
34034;BME280;63481;52.588;22.472;2024-01-16T20:40:58;99585.73;;;-9.16;100.00
34034;BME280;63481;52.588;22.472;2024-01-16T20:46:01;99586.71;;;-9.08;100.00
34034;BME280;63481;52.588;22.472;2024-01-16T20:51:04;99596.20;;;-9.08;100.00
34034;BME280;63481;52.588;22.472;2024-01-16T20:56:07;99606.69;;;-9.13;100.00
34034;BME280;63481;52.588;22.472;2024-01-16T21:01:09;99616.55;;;-9.06;100.00
34034;BME280;63481;52.588;22.472;2024-01-16T21:06:11;99617.65;;;-9.04;100.00
34034;BME280;63481;52.588;22.472;2024-01-16T21:11:13;99617.98;;;-9.25;100.00
34034;BME280;63481;52.588;22.472;2024-01-16T21:16:15;99621.59;;;-9.35;100.00
34034;BME280;63481;52.588;22.472;2024-01-16T21:21:18;99621.32;;;-9.42;100.00
34034;BME280;63481;52.588;22.472;2024-01-16T21:26:20;99618.20;;;-9.69;100.00
34034;BME280;63481;52.588;22.472;2024-01-16T21:31:22;99615.20;;;-9.96;100.00
34034;BME280;63481;52.588;22.472;2024-01-16T21:36:24;99613.73;;;-10.25;100.00
34034;BME280;63481;52.588;22.472;2024-01-16T21:41:26;99610.52;;;-10.57;100.00
34034;BME280;63481;52.588;22.472;2024-01-16T21:46:28;99611.20;;;-10.71;100.00
34034;BME280;63481;52.588;22.472;2024-01-16T21:51:30;99614.15;;;-10.80;100.00
34034;BME280;63481;52.588;22.472;2024-01-16T21:56:33;99609.45;;;-10.91;100.00
34034;BME280;63481;52.588;22.472;2024-01-16T22:01:38;99605.64;;;-11.15;100.00
34034;BME280;63481;52.588;22.472;2024-01-16T22:06:40;99615.17;;;-11.38;100.00
34034;BME280;63481;52.588;22.472;2024-01-16T22:11:42;99616.45;;;-11.64;100.00
34034;BME280;63481;52.588;22.472;2024-01-16T22:16:44;99625.46;;;-11.74;100.00
34034;BME280;63481;52.588;22.472;2024-01-16T22:21:46;99624.62;;;-12.00;100.00
34034;BME280;63481;52.588;22.472;2024-01-16T22:26:48;99628.81;;;-12.31;100.00
34034;BME280;63481;52.588;22.472;2024-01-16T22:31:50;99632.28;;;-12.25;100.00
34034;BME280;63481;52.588;22.472;2024-01-16T22:36:53;99641.61;;;-11.88;100.00
34034;BME280;63481;52.588;22.472;2024-01-16T22:41:55;99643.96;;;-11.53;100.00
34034;BME280;63481;52.588;22.472;2024-01-16T22:46:57;99638.58;;;-11.89;100.00
34034;BME280;63481;52.588;22.472;2024-01-16T22:51:59;99634.14;;;-12.34;100.00
34034;BME280;63481;52.588;22.472;2024-01-16T22:57:01;99629.81;;;-12.40;100.00
34034;BME280;63481;52.588;22.472;2024-01-16T23:02:03;99632.88;;;-12.43;100.00
34034;BME280;63481;52.588;22.472;2024-01-16T23:07:07;99634.02;;;-12.56;100.00
34034;BME280;63481;52.588;22.472;2024-01-16T23:12:09;99637.34;;;-12.50;100.00
34034;BME280;63481;52.588;22.472;2024-01-16T23:17:13;99643.81;;;-12.43;100.00
34034;BME280;63481;52.588;22.472;2024-01-16T23:22:15;99649.70;;;-12.21;100.00
34034;BME280;63481;52.588;22.472;2024-01-16T23:27:17;99650.62;;;-11.94;100.00
34034;BME280;63481;52.588;22.472;2024-01-16T23:32:19;99650.77;;;-11.58;100.00
34034;BME280;63481;52.588;22.472;2024-01-16T23:37:21;99645.35;;;-11.90;100.00
34034;BME280;63481;52.588;22.472;2024-01-16T23:42:25;99637.51;;;-12.21;100.00
34034;BME280;63481;52.588;22.472;2024-01-16T23:47:33;99640.45;;;-12.34;100.00
34034;BME280;63481;52.588;22.472;2024-01-16T23:52:39;99638.89;;;-12.47;100.00
34034;BME280;63481;52.588;22.472;2024-01-16T23:57:41;99634.34;;;-12.58;100.00
